Time;durP1;ratioP1;P1;durP2;ratioP2;P2;SDS_P1;SDS_P2;PMS_P1;PMS_P2;Temp;Humidity;BMP_temperature;BMP_pressure;BME280_temperature;BME280_humidity;BME280_pressure;Samples;Min_cycle;Max_cycle;Signal;HPM_P1;HPM_P2
2024/03/06 00:02:06;;;;;;;21.95;12.38;;;5.60;99.90;;;;;;7369985;19;20038;-68
2024/03/06 00:04:33;;;;;;;13.27;10.38;;;5.60;99.90;;;;;;7370252;19;20379;-68
2024/03/06 00:06:59;;;;;;;16.30;11.05;;;5.70;99.90;;;;;;7369735;19;20019;-68
2024/03/06 00:09:29;;;;;;;13.05;9.88;;;5.60;99.90;;;;;;7365072;19;20031;-65
2024/03/06 00:11:56;;;;;;;15.88;11.00;;;5.60;99.90;;;;;;7368685;19;20018;-68
2024/03/06 00:14:23;;;;;;;15.35;9.98;;;5.60;99.90;;;;;;7370641;19;20046;-69
2024/03/06 00:16:50;;;;;;;15.32;11.75;;;5.60;99.90;;;;;;7366218;19;20014;-71
2024/03/06 00:19:20;;;;;;;16.10;10.63;;;5.60;99.90;;;;;;7366438;19;20097;-65
2024/03/06 00:21:46;;;;;;;14.43;10.60;;;5.60;99.90;;;;;;7369183;19;20090;-65
2024/03/06 00:24:13;;;;;;;14.05;10.40;;;5.60;99.90;;;;;;7369608;19;20808;-70
2024/03/06 00:26:41;;;;;;;16.15;11.25;;;5.60;99.90;;;;;;7364996;19;20386;-66
2024/03/06 00:29:09;;;;;;;17.20;10.25;;;5.60;99.90;;;;;;7370170;19;20029;-66
2024/03/06 00:31:36;;;;;;;15.45;10.43;;;5.70;99.90;;;;;;7360378;19;20023;-66
2024/03/06 00:34:03;;;;;;;15.60;11.00;;;5.50;99.90;;;;;;7370242;19;20018;-66
2024/03/06 00:36:29;;;;;;;16.42;10.68;;;5.50;99.90;;;;;;7369461;19;20026;-70
2024/03/06 00:38:55;;;;;;;17.90;10.95;;;5.50;99.90;;;;;;7372746;19;20018;-66
2024/03/06 00:41:21;;;;;;;11.00;7.43;;;5.50;99.90;;;;;;7374510;19;20026;-66
2024/03/06 00:43:50;;;;;;;14.35;10.32;;;5.50;99.90;;;;;;7371093;19;20351;-70
2024/03/06 00:46:16;;;;;;;14.70;9.77;;;5.50;99.90;;;;;;7368405;19;20757;-71
2024/03/06 00:48:43;;;;;;;14.25;10.20;;;5.50;99.90;;;;;;7367967;19;20034;-66
2024/03/06 00:51:09;;;;;;;18.85;10.88;;;5.50;99.90;;;;;;7364372;19;20045;-66
2024/03/06 00:53:35;;;;;;;13.18;10.10;;;5.40;99.90;;;;;;7367529;19;20035;-66
2024/03/06 00:56:02;;;;;;;15.27;11.05;;;5.40;99.90;;;;;;7368184;19;20037;-70
2024/03/06 00:58:29;;;;;;;15.85;10.95;;;5.40;99.90;;;;;;7370554;19;20025;-69
2024/03/06 01:00:57;;;;;;;14.93;10.57;;;5.40;99.90;;;;;;7371658;19;20094;-69
2024/03/06 01:03:23;;;;;;;13.48;10.82;;;5.40;99.90;;;;;;7364268;19;20025;-66
2024/03/06 01:05:50;;;;;;;14.88;9.32;;;5.30;99.90;;;;;;7370164;19;20014;-69
2024/03/06 01:08:17;;;;;;;14.63;10.52;;;5.30;99.90;;;;;;7364772;19;20092;-69
2024/03/06 01:10:44;;;;;;;14.77;10.68;;;5.30;99.90;;;;;;7371882;19;20019;-68
2024/03/06 01:13:10;;;;;;;16.80;12.20;;;5.30;99.90;;;;;;7367724;19;20816;-65
2024/03/06 01:15:38;;;;;;;18.98;10.98;;;5.20;99.90;;;;;;7363868;19;20070;-65
2024/03/06 01:18:07;;;;;;;18.35;10.85;;;5.20;99.90;;;;;;7368223;19;20019;-65
2024/03/06 01:20:33;;;;;;;19.40;11.70;;;5.20;99.90;;;;;;7370744;19;20019;-67
2024/03/06 01:22:59;;;;;;;17.02;11.68;;;5.20;99.90;;;;;;7370244;19;20022;-65
2024/03/06 01:25:25;;;;;;;14.20;10.98;;;5.20;99.90;;;;;;7373425;19;20479;-66
2024/03/06 01:27:51;;;;;;;16.05;11.07;;;5.20;99.90;;;;;;7369519;19;20022;-65
2024/03/06 01:30:17;;;;;;;15.07;11.07;;;5.20;99.90;;;;;;7371745;19;20647;-69
2024/03/06 01:32:43;;;;;;;17.35;11.50;;;5.20;99.90;;;;;;7379387;19;20692;-65
2024/03/06 01:35:10;;;;;;;16.38;11.70;;;5.20;99.90;;;;;;7379232;19;20043;-65
2024/03/06 01:37:36;;;;;;;18.75;11.77;;;5.20;99.90;;;;;;7378311;19;20029;-68
2024/03/06 01:40:04;;;;;;;15.65;11.32;;;5.20;99.90;;;;;;7379049;19;20019;-68
2024/03/06 01:42:31;;;;;;;14.35;9.95;;;5.20;99.90;;;;;;7380930;19;20026;-68
2024/03/06 01:45:01;;;;;;;14.73;11.63;;;5.20;99.90;;;;;;7378455;19;20470;-70
2024/03/06 01:47:28;;;;;;;17.25;11.90;;;5.10;99.90;;;;;;7380891;19;20014;-69
2024/03/06 01:49:54;;;;;;;18.25;11.35;;;5.20;99.90;;;;;;7376067;19;20011;-65
2024/03/06 01:52:24;;;;;;;20.15;11.68;;;5.10;99.90;;;;;;7376460;19;20045;-67
2024/03/06 01:54:51;;;;;;;15.68;11.05;;;5.10;99.90;;;;;;7376335;19;20033;-65
2024/03/06 01:57:19;;;;;;;15.77;11.07;;;5.10;99.90;;;;;;7371167;19;20018;-65
2024/03/06 01:59:45;;;;;;;19.45;11.18;;;5.10;99.90;;;;;;7377120;19;20018;-69
2024/03/06 02:02:12;;;;;;;16.95;11.32;;;5.10;99.90;;;;;;7377862;19;20077;-68
2024/03/06 02:04:39;;;;;;;16.88;11.43;;;5.10;99.90;;;;;;7382870;19;20026;-68
2024/03/06 02:07:12;;;;;;;15.68;11.00;;;5.10;99.90;;;;;;7378645;19;20645;-68
2024/03/06 02:09:38;;;;;;;15.35;10.98;;;5.10;99.90;;;;;;7379893;19;20019;-68
2024/03/06 02:12:08;;;;;;;15.68;11.52;;;5.10;99.90;;;;;;7380934;19;20028;-70
2024/03/06 02:14:37;;;;;;;16.38;11.57;;;5.10;99.90;;;;;;7378611;19;20035;-71
2024/03/06 02:17:03;;;;;;;17.52;11.60;;;5.10;99.90;;;;;;7375679;19;20090;-68
2024/03/06 02:19:43;;;;;;;19.55;10.63;;;5.10;99.90;;;;;;7378266;19;20021;-68
2024/03/06 02:22:11;;;;;;;15.30;9.88;;;5.10;99.90;;;;;;7379226;19;20018;-66
2024/03/06 02:24:38;;;;;;;17.02;12.15;;;5.10;99.90;;;;;;7374897;19;20025;-64
2024/03/06 02:27:05;;;;;;;21.20;11.27;;;5.10;99.90;;;;;;7376212;19;20094;-69
2024/03/06 02:29:35;;;;;;;15.45;11.18;;;5.10;99.90;;;;;;7374315;19;20105;-69
2024/03/06 02:32:02;;;;;;;17.27;10.60;;;5.10;99.90;;;;;;7375977;19;20025;-69
2024/03/06 02:34:30;;;;;;;16.20;11.27;;;5.10;99.90;;;;;;7368909;19;20018;-68
2024/03/06 02:36:56;;;;;;;13.23;11.05;;;5.10;99.90;;;;;;7381655;19;20379;-64
2024/03/06 02:39:23;;;;;;;18.27;11.40;;;5.10;99.90;;;;;;7376431;19;20022;-68
2024/03/06 02:41:49;;;;;;;15.32;10.20;;;5.10;99.90;;;;;;7377072;19;20014;-68
2024/03/06 02:44:17;;;;;;;15.07;11.02;;;5.00;99.90;;;;;;7376505;19;20482;-65
2024/03/06 02:46:52;;;;;;;15.60;11.40;;;5.00;99.90;;;;;;7376177;19;20022;-65
2024/03/06 02:49:19;;;;;;;15.13;11.45;;;5.10;99.90;;;;;;7368201;19;20082;-65
2024/03/06 02:51:45;;;;;;;11.98;9.27;;;5.10;99.90;;;;;;7376319;19;20029;-65
2024/03/06 02:54:12;;;;;;;18.42;11.98;;;5.10;99.90;;;;;;7376838;19;20018;-68
2024/03/06 02:56:38;;;;;;;17.83;11.88;;;5.00;99.90;;;;;;7377424;19;20026;-69
2024/03/06 02:59:07;;;;;;;17.50;11.20;;;5.00;99.90;;;;;;7375096;19;20023;-64
2024/03/06 03:01:34;;;;;;;16.48;11.73;;;5.00;99.90;;;;;;7373475;19;20875;-69
2024/03/06 03:04:02;;;;;;;14.77;9.15;;;5.10;99.90;;;;;;7374108;19;20010;-71
2024/03/06 03:06:29;;;;;;;14.07;9.63;;;5.00;99.90;;;;;;7369939;19;20051;-70
2024/03/06 03:08:56;;;;;;;16.45;11.57;;;5.00;99.90;;;;;;7380058;19;20023;-71
2024/03/06 03:11:22;;;;;;;17.33;10.93;;;5.00;99.90;;;;;;7372032;19;20019;-65
2024/03/06 03:13:48;;;;;;;17.02;10.57;;;5.00;99.90;;;;;;7375084;19;20025;-73
2024/03/06 03:16:18;;;;;;;17.77;10.68;;;5.00;99.90;;;;;;7381416;19;20030;-69
2024/03/06 03:18:45;;;;;;;16.10;11.00;;;5.00;99.90;;;;;;7375784;19;20020;-69
2024/03/06 03:21:14;;;;;;;14.50;10.23;;;5.00;99.90;;;;;;7377585;19;20041;-70
2024/03/06 03:23:40;;;;;;;16.80;11.55;;;5.10;99.90;;;;;;7376456;19;20775;-72
2024/03/06 03:26:10;;;;;;;19.08;11.45;;;5.10;99.90;;;;;;7373056;19;20026;-64
2024/03/06 03:28:39;;;;;;;19.73;11.80;;;5.10;99.90;;;;;;7363397;19;20483;-64
2024/03/06 03:31:10;;;;;;;14.82;11.23;;;5.10;99.90;;;;;;7372008;19;20635;-69
2024/03/06 03:33:39;;;;;;;17.98;11.38;;;5.10;99.90;;;;;;7372593;19;20026;-69
2024/03/06 03:36:09;;;;;;;15.32;10.85;;;5.10;99.90;;;;;;7380096;19;20391;-69
2024/03/06 03:38:40;;;;;;;19.55;12.43;;;5.10;99.90;;;;;;7373407;19;20026;-68
2024/03/06 03:41:12;;;;;;;14.85;11.68;;;5.10;99.90;;;;;;7376117;19;20028;-64
2024/03/06 03:43:40;;;;;;;15.75;11.73;;;5.10;99.90;;;;;;7374392;19;20939;-64
2024/03/06 03:46:07;;;;;;;15.20;11.52;;;5.10;99.90;;;;;;7374547;19;20757;-64
2024/03/06 03:48:36;;;;;;;14.10;11.77;;;5.10;99.90;;;;;;7369492;19;20022;-64
2024/03/06 03:51:06;;;;;;;15.52;11.15;;;5.10;99.90;;;;;;7374103;19;20019;-64
2024/03/06 03:53:33;;;;;;;20.08;11.77;;;5.10;99.90;;;;;;7368417;19;20023;-65
2024/03/06 03:56:00;;;;;;;15.15;11.02;;;5.10;99.90;;;;;;7372359;19;20018;-65
2024/03/06 03:58:26;;;;;;;16.48;11.48;;;5.10;99.90;;;;;;7372495;19;20022;-65
2024/03/06 04:00:54;;;;;;;18.45;12.02;;;5.10;99.90;;;;;;7372438;19;20478;-69
2024/03/06 04:03:22;;;;;;;16.85;12.48;;;5.10;99.90;;;;;;7375739;19;20034;-65
2024/03/06 04:05:49;;;;;;;16.92;11.60;;;5.10;99.90;;;;;;7370261;19;20491;-65
2024/03/06 04:08:16;;;;;;;14.82;11.52;;;5.20;99.90;;;;;;7369575;19;20074;-69
2024/03/06 04:10:45;;;;;;;16.52;11.30;;;5.10;99.90;;;;;;7373140;19;20130;-69
2024/03/06 04:13:12;;;;;;;13.55;10.57;;;5.10;99.90;;;;;;7378138;19;20094;-68
2024/03/06 04:15:38;;;;;;;17.67;12.52;;;5.10;99.90;;;;;;7370785;19;20333;-68
2024/03/06 04:18:05;;;;;;;15.55;11.90;;;5.10;99.90;;;;;;7374988;19;20491;-65
2024/03/06 04:20:31;;;;;;;16.50;10.90;;;5.10;99.90;;;;;;7373474;19;20078;-65
2024/03/06 04:22:57;;;;;;;17.77;11.82;;;5.10;99.90;;;;;;7371670;19;21033;-69
2024/03/06 04:25:23;;;;;;;19.20;12.20;;;5.10;99.90;;;;;;7371966;19;20604;-69
2024/03/06 04:27:50;;;;;;;17.17;11.30;;;5.10;99.90;;;;;;7373369;19;20509;-70
2024/03/06 04:30:16;;;;;;;16.33;12.43;;;5.10;99.90;;;;;;7368121;19;20098;-65
2024/03/06 04:32:42;;;;;;;15.65;11.48;;;5.10;99.90;;;;;;7371432;19;20795;-69
2024/03/06 04:35:09;;;;;;;15.85;10.60;;;5.10;99.90;;;;;;7368446;19;20094;-69
2024/03/06 04:37:35;;;;;;;14.82;11.35;;;5.10;99.90;;;;;;7371402;19;20022;-68
2024/03/06 04:40:03;;;;;;;16.75;12.40;;;5.10;99.90;;;;;;7373928;19;20018;-69
2024/03/06 04:42:29;;;;;;;19.40;12.43;;;5.10;99.90;;;;;;7370775;19;20018;-65
2024/03/06 04:44:56;;;;;;;17.08;12.38;;;5.10;99.90;;;;;;7374785;19;20075;-67
2024/03/06 04:47:24;;;;;;;16.20;12.57;;;5.10;99.90;;;;;;7371243;19;20026;-68
2024/03/06 04:49:51;;;;;;;17.35;13.02;;;5.10;99.90;;;;;;7372049;19;20018;-65
2024/03/06 04:52:17;;;;;;;16.50;12.27;;;5.10;99.90;;;;;;7368590;19;20363;-65
2024/03/06 04:54:43;;;;;;;16.20;12.27;;;5.10;99.90;;;;;;7371296;19;20022;-69
2024/03/06 04:57:09;;;;;;;15.82;13.10;;;5.10;99.90;;;;;;7370504;19;20025;-69
2024/03/06 04:59:36;;;;;;;18.27;13.60;;;5.10;99.90;;;;;;7368273;19;20629;-70
2024/03/06 05:02:03;;;;;;;17.23;13.32;;;5.10;99.90;;;;;;7370822;19;20385;-69
2024/03/06 05:04:29;;;;;;;15.25;12.63;;;5.10;99.90;;;;;;7356656;19;20026;-65
2024/03/06 05:06:56;;;;;;;18.65;13.10;;;5.10;99.90;;;;;;7371732;19;20049;-64
2024/03/06 05:09:23;;;;;;;19.70;13.52;;;5.10;99.90;;;;;;7368112;19;20031;-65
2024/03/06 05:11:50;;;;;;;19.55;13.73;;;5.10;99.90;;;;;;7371009;19;20643;-65
2024/03/06 05:14:17;;;;;;;16.23;12.75;;;5.10;99.90;;;;;;7367046;19;20055;-65
2024/03/06 05:16:43;;;;;;;18.88;13.30;;;5.10;99.90;;;;;;7372413;19;20090;-65
2024/03/06 05:19:10;;;;;;;17.88;12.35;;;5.10;99.90;;;;;;7376658;19;20024;-70
2024/03/06 05:21:37;;;;;;;19.35;12.75;;;5.10;99.90;;;;;;7372194;19;20099;-69
2024/03/06 05:24:03;;;;;;;17.90;12.95;;;5.10;99.90;;;;;;7381090;19;20053;-71
2024/03/06 05:26:29;;;;;;;18.98;12.02;;;5.10;99.90;;;;;;7374842;19;20082;-71
2024/03/06 05:28:58;;;;;;;18.15;13.15;;;5.10;99.90;;;;;;7377525;19;20787;-70
2024/03/06 05:31:25;;;;;;;16.38;12.57;;;5.10;99.90;;;;;;7370838;19;20550;-70
2024/03/06 05:33:51;;;;;;;19.33;13.90;;;5.10;99.90;;;;;;7375448;19;20014;-70
2024/03/06 05:36:17;;;;;;;18.45;12.77;;;5.10;99.90;;;;;;7372448;19;20036;-69
2024/03/06 05:38:44;;;;;;;20.92;13.68;;;5.10;99.90;;;;;;7370073;19;20412;-71
2024/03/06 05:41:11;;;;;;;19.58;13.82;;;5.10;99.90;;;;;;7371414;19;20661;-66
2024/03/06 05:43:37;;;;;;;17.08;13.40;;;5.10;99.90;;;;;;7369594;19;20487;-66
2024/03/06 05:46:04;;;;;;;19.67;13.20;;;5.10;99.90;;;;;;7372360;19;20768;-66
2024/03/06 05:48:33;;;;;;;19.02;12.85;;;5.10;99.90;;;;;;7370924;19;20150;-66
2024/03/06 05:51:00;;;;;;;18.73;14.15;;;5.10;99.90;;;;;;7368264;19;20822;-66
2024/03/06 05:53:26;;;;;;;20.58;13.77;;;5.10;99.90;;;;;;7366431;19;20642;-66
2024/03/06 05:55:53;;;;;;;17.92;13.05;;;5.10;99.90;;;;;;7370549;19;20014;-65
2024/03/06 05:58:19;;;;;;;18.50;14.27;;;5.10;99.90;;;;;;7372088;19;20052;-68
2024/03/06 06:00:46;;;;;;;22.02;13.45;;;5.10;99.90;;;;;;7365462;19;20082;-69
2024/03/06 06:03:12;;;;;;;19.50;14.75;;;5.10;99.90;;;;;;7368280;19;20018;-64
2024/03/06 06:05:39;;;;;;;18.00;13.25;;;5.10;99.90;;;;;;7365312;19;20611;-63
2024/03/06 06:08:07;;;;;;;18.60;14.13;;;5.10;99.90;;;;;;7371120;19;20103;-67
2024/03/06 06:10:33;;;;;;;18.77;13.82;;;5.10;99.90;;;;;;7368663;19;21703;-65
2024/03/06 06:12:59;;;;;;;16.90;12.52;;;5.10;99.90;;;;;;7372082;19;20019;-68
2024/03/06 06:15:26;;;;;;;17.58;13.25;;;5.10;99.90;;;;;;7372536;19;20593;-68
2024/03/06 06:17:52;;;;;;;16.15;13.40;;;5.10;99.90;;;;;;7380062;19;20015;-65
2024/03/06 06:20:18;;;;;;;20.60;13.98;;;5.10;99.90;;;;;;7380690;19;20792;-65
2024/03/06 06:22:45;;;;;;;16.98;12.77;;;5.10;99.90;;;;;;7378581;19;20522;-68
2024/03/06 06:25:12;;;;;;;20.55;14.90;;;5.10;99.90;;;;;;7380073;19;20026;-65
2024/03/06 06:27:38;;;;;;;16.95;13.82;;;5.00;99.90;;;;;;7378821;19;20426;-66
2024/03/06 06:30:06;;;;;;;17.80;13.35;;;5.10;99.90;;;;;;7376202;19;20041;-66
2024/03/06 06:32:33;;;;;;;19.00;13.52;;;5.10;99.90;;;;;;7377321;19;20035;-67
2024/03/06 06:34:59;;;;;;;16.40;13.68;;;5.10;99.90;;;;;;7379583;19;20014;-67
2024/03/06 06:37:25;;;;;;;21.55;14.90;;;5.10;99.90;;;;;;7375255;19;20030;-69
2024/03/06 06:39:51;;;;;;;20.55;14.02;;;5.10;99.90;;;;;;7376167;19;20017;-67
2024/03/06 06:42:17;;;;;;;23.30;15.32;;;5.10;99.90;;;;;;7374172;19;20029;-66
2024/03/06 06:44:44;;;;;;;20.98;15.30;;;5.10;99.90;;;;;;7372867;19;20026;-69
2024/03/06 06:47:10;;;;;;;20.42;14.35;;;5.10;99.90;;;;;;7374357;19;20057;-70
2024/03/06 06:49:36;;;;;;;19.88;14.73;;;5.10;99.90;;;;;;7378879;19;20027;-64
2024/03/06 06:52:02;;;;;;;19.45;14.70;;;5.10;99.90;;;;;;7379140;19;20015;-69
2024/03/06 06:54:29;;;;;;;16.70;13.82;;;5.10;99.90;;;;;;7375322;19;20110;-70
2024/03/06 06:56:55;;;;;;;17.33;14.10;;;5.10;99.90;;;;;;7378597;19;20026;-67
2024/03/06 06:59:22;;;;;;;20.00;15.30;;;5.10;99.90;;;;;;7377483;19;20015;-66
2024/03/06 07:01:48;;;;;;;21.35;14.30;;;5.10;99.90;;;;;;7378676;19;20347;-69
2024/03/06 07:04:17;;;;;;;25.05;15.75;;;5.20;99.90;;;;;;7374945;19;20018;-66
2024/03/06 07:06:43;;;;;;;20.85;15.38;;;5.20;99.90;;;;;;7377769;19;20018;-66
2024/03/06 07:09:10;;;;;;;20.45;15.07;;;5.20;99.90;;;;;;7374572;19;20031;-66
2024/03/06 07:11:36;;;;;;;19.00;14.80;;;5.20;99.90;;;;;;7374633;19;20014;-64
2024/03/06 07:14:03;;;;;;;19.98;14.88;;;5.20;99.90;;;;;;7374621;19;20018;-66
2024/03/06 07:16:29;;;;;;;20.77;15.63;;;5.20;99.90;;;;;;7377822;19;20034;-66
2024/03/06 07:18:55;;;;;;;21.70;14.70;;;5.20;99.90;;;;;;7376330;19;20023;-66
2024/03/06 07:21:21;;;;;;;19.52;14.60;;;5.20;99.90;;;;;;7376703;19;20447;-69
2024/03/06 07:23:47;;;;;;;20.40;15.48;;;5.10;99.90;;;;;;7374305;19;20059;-67
2024/03/06 07:26:14;;;;;;;18.95;13.60;;;5.20;99.90;;;;;;7376867;19;20059;-66
2024/03/06 07:28:40;;;;;;;20.33;14.80;;;5.20;99.90;;;;;;7374596;19;20026;-64
2024/03/06 07:31:06;;;;;;;20.52;15.02;;;5.20;99.90;;;;;;7374742;19;20025;-67
2024/03/06 07:33:34;;;;;;;19.40;15.15;;;5.20;99.90;;;;;;7374664;19;20722;-69
2024/03/06 07:36:04;;;;;;;18.65;15.40;;;5.20;99.90;;;;;;7373974;19;20742;-67
2024/03/06 07:38:30;;;;;;;21.60;16.08;;;5.20;99.90;;;;;;7373047;19;20077;-67
2024/03/06 07:40:57;;;;;;;20.50;16.05;;;5.20;99.90;;;;;;7374215;19;20029;-69
2024/03/06 07:43:23;;;;;;;18.40;13.25;;;5.20;99.90;;;;;;7376252;19;20018;-65
2024/03/06 07:45:49;;;;;;;34.53;25.70;;;5.30;99.90;;;;;;7375878;19;20053;-67
2024/03/06 07:48:15;;;;;;;21.15;15.95;;;5.30;99.90;;;;;;7373626;19;20131;-68
2024/03/06 07:50:42;;;;;;;18.02;13.70;;;5.30;99.90;;;;;;7373098;19;20022;-68
2024/03/06 07:53:08;;;;;;;22.05;15.10;;;5.40;99.90;;;;;;7374481;19;20392;-69
2024/03/06 07:55:38;;;;;;;20.52;14.98;;;5.40;99.90;;;;;;7374554;19;20452;-68
2024/03/06 07:58:05;;;;;;;18.92;13.88;;;5.40;99.90;;;;;;7374004;19;20895;-62
2024/03/06 08:00:31;;;;;;;22.60;15.20;;;5.40;99.90;;;;;;7375761;19;20025;-66
2024/03/06 08:02:57;;;;;;;17.77;14.68;;;5.40;99.90;;;;;;7373086;19;20494;-66
2024/03/06 08:05:24;;;;;;;20.63;15.27;;;5.40;99.90;;;;;;7376922;19;20026;-66
2024/03/06 08:07:50;;;;;;;20.88;15.52;;;5.50;99.90;;;;;;7372290;19;20018;-66
2024/03/06 08:10:18;;;;;;;20.35;15.38;;;5.40;99.90;;;;;;7371464;19;20084;-66
2024/03/06 08:12:45;;;;;;;20.98;15.35;;;5.40;99.90;;;;;;7374415;19;20399;-66
2024/03/06 08:15:13;;;;;;;19.40;15.60;;;5.50;99.90;;;;;;7370292;19;20014;-66
2024/03/06 08:17:44;;;;;;;19.70;14.48;;;5.50;99.90;;;;;;7368847;19;20026;-66
2024/03/06 08:20:11;;;;;;;19.55;15.30;;;5.50;99.90;;;;;;7375456;19;20137;-66
2024/03/06 08:22:39;;;;;;;18.60;14.77;;;5.60;99.90;;;;;;7371289;19;20019;-66
2024/03/06 08:25:07;;;;;;;19.10;14.75;;;5.60;99.90;;;;;;7374604;19;20815;-67
2024/03/06 08:27:35;;;;;;;18.33;15.20;;;5.60;99.90;;;;;;7372575;19;20871;-66
2024/03/06 08:30:04;;;;;;;19.42;14.40;;;5.60;99.90;;;;;;7374291;19;20335;-63
2024/03/06 08:32:33;;;;;;;18.13;14.75;;;5.60;99.90;;;;;;7369911;19;20026;-66
2024/03/06 08:34:59;;;;;;;22.45;15.65;;;5.60;99.90;;;;;;7369946;19;20018;-66
2024/03/06 08:37:25;;;;;;;18.15;15.30;;;5.70;99.90;;;;;;7372706;19;20115;-66
2024/03/06 08:39:52;;;;;;;22.90;15.25;;;5.80;99.90;;;;;;7370654;19;20026;-62
2024/03/06 08:42:18;;;;;;;17.45;14.30;;;5.80;99.90;;;;;;7373318;19;20030;-66
2024/03/06 08:44:45;;;;;;;20.58;15.43;;;5.80;99.90;;;;;;7372986;19;20628;-67
2024/03/06 08:47:12;;;;;;;19.75;14.05;;;5.80;99.90;;;;;;7376190;19;20022;-67
2024/03/06 08:49:38;;;;;;;19.05;15.35;;;5.80;99.90;;;;;;7370585;19;20018;-66
2024/03/06 08:52:05;;;;;;;19.05;14.80;;;5.90;99.90;;;;;;7371843;19;20038;-66
2024/03/06 08:54:32;;;;;;;19.10;12.82;;;5.80;99.90;;;;;;7368995;19;20031;-66
2024/03/06 08:56:59;;;;;;;19.08;14.27;;;5.80;99.90;;;;;;7375880;19;20031;-66
2024/03/06 08:59:25;;;;;;;20.65;16.35;;;5.80;99.90;;;;;;7372262;19;20758;-66
2024/03/06 09:01:55;;;;;;;20.88;15.07;;;5.80;99.90;;;;;;7370810;19;20616;-65
2024/03/06 09:04:22;;;;;;;21.65;15.20;;;5.90;99.90;;;;;;7372462;19;20022;-68
2024/03/06 09:06:51;;;;;;;21.55;15.43;;;5.90;99.90;;;;;;7374300;19;20767;-67
2024/03/06 09:09:17;;;;;;;21.33;15.77;;;5.90;99.90;;;;;;7374142;19;20021;-68
2024/03/06 09:11:45;;;;;;;20.52;15.60;;;5.90;99.90;;;;;;7374420;19;20455;-68
2024/03/06 09:14:11;;;;;;;21.67;16.13;;;6.00;99.90;;;;;;7357076;19;20018;-66
2024/03/06 09:16:37;;;;;;;22.55;16.35;;;6.00;99.90;;;;;;7361778;19;20105;-68
2024/03/06 09:19:07;;;;;;;19.02;16.40;;;6.00;99.90;;;;;;7369194;19;20026;-67
2024/03/06 09:21:33;;;;;;;21.70;15.82;;;6.10;99.90;;;;;;7362217;19;20037;-68
2024/03/06 09:24:01;;;;;;;19.92;15.77;;;6.00;99.90;;;;;;7366514;19;20044;-68
2024/03/06 09:26:27;;;;;;;17.30;13.07;;;6.10;99.90;;;;;;7369258;19;20842;-67
2024/03/06 09:28:53;;;;;;;24.20;16.50;;;6.10;99.90;;;;;;7364487;19;20023;-67
2024/03/06 09:31:20;;;;;;;20.63;15.63;;;6.10;99.90;;;;;;7363659;19;20020;-68
2024/03/06 09:33:46;;;;;;;19.58;16.83;;;6.20;99.90;;;;;;7366224;19;20018;-67
2024/03/06 09:36:13;;;;;;;22.83;16.63;;;6.20;99.90;;;;;;7365690;19;20044;-67
2024/03/06 09:38:40;;;;;;;20.80;16.38;;;6.30;99.90;;;;;;7368942;19;20022;-67
2024/03/06 09:41:08;;;;;;;20.50;16.17;;;6.30;99.90;;;;;;7368697;19;20490;-65
2024/03/06 09:43:37;;;;;;;24.65;18.67;;;6.30;99.90;;;;;;7367639;19;20617;-66
2024/03/06 09:46:04;;;;;;;23.98;16.30;;;6.20;99.90;;;;;;7358906;19;20019;-67
2024/03/06 09:48:30;;;;;;;22.85;16.85;;;6.30;99.90;;;;;;7366275;19;20014;-70
2024/03/06 09:51:02;;;;;;;29.83;22.65;;;6.20;99.90;;;;;;7365526;19;20028;-67
2024/03/06 09:53:28;;;;;;;25.45;17.67;;;6.30;99.90;;;;;;7372446;19;20015;-67
2024/03/06 09:55:57;;;;;;;25.23;18.05;;;6.40;99.90;;;;;;7368237;19;20290;-71
2024/03/06 09:58:24;;;;;;;26.55;17.90;;;6.40;99.90;;;;;;7371934;19;20023;-67
2024/03/06 10:00:51;;;;;;;28.77;19.48;;;6.40;99.90;;;;;;7368794;19;20027;-67
2024/03/06 10:03:20;;;;;;;25.48;18.25;;;6.40;99.90;;;;;;7378207;19;20482;-68
2024/03/06 10:05:46;;;;;;;25.05;19.17;;;6.50;99.90;;;;;;7374153;19;20019;-66
2024/03/06 10:08:16;;;;;;;23.73;18.20;;;6.60;99.90;;;;;;7370763;19;20026;-65
2024/03/06 10:10:43;;;;;;;24.55;17.50;;;6.70;99.90;;;;;;7372365;19;20838;-65
2024/03/06 10:13:10;;;;;;;27.38;18.50;;;6.70;99.90;;;;;;7373127;19;20078;-66
2024/03/06 10:15:37;;;;;;;26.52;18.13;;;6.80;99.90;;;;;;7372799;19;20029;-66
2024/03/06 10:18:18;;;;;;;26.55;18.73;;;6.90;99.90;;;;;;7375059;19;20018;-68
2024/03/06 10:20:44;;;;;;;24.13;15.75;;;6.90;99.90;;;;;;7371137;19;20014;-65
2024/03/06 10:23:11;;;;;;;26.60;18.55;;;7.00;99.90;;;;;;7371246;19;20018;-65
2024/03/06 10:25:37;;;;;;;22.50;18.45;;;7.00;99.90;;;;;;7375662;19;20435;-66
2024/03/06 10:28:11;;;;;;;26.70;18.38;;;7.10;99.90;;;;;;7377692;19;20363;-66
2024/03/06 10:30:42;;;;;;;25.00;18.45;;;7.00;99.90;;;;;;7373194;19;20022;-67
2024/03/06 10:33:08;;;;;;;26.05;19.10;;;7.20;99.90;;;;;;7377871;19;20081;-67
2024/03/06 10:35:37;;;;;;;29.30;20.13;;;7.20;99.90;;;;;;7373114;19;20064;-67
2024/03/06 10:38:06;;;;;;;24.15;18.17;;;7.30;99.90;;;;;;7376568;19;20651;-66
2024/03/06 10:40:34;;;;;;;25.55;17.52;;;7.40;99.90;;;;;;7373539;19;20025;-67
2024/03/06 10:43:02;;;;;;;25.30;18.77;;;7.40;99.90;;;;;;7377107;19;20026;-67
2024/03/06 10:46:00;;;;;;;27.13;19.48;;;7.50;99.90;;;;;;7377623;19;20018;-67
2024/03/06 10:48:28;;;;;;;29.42;20.23;;;7.50;99.90;;;;;;7373499;19;20118;-67
2024/03/06 10:50:55;;;;;;;27.42;19.05;;;7.60;99.90;;;;;;7375284;19;20059;-67
2024/03/06 10:53:23;;;;;;;23.55;18.90;;;7.60;99.90;;;;;;7375730;19;20014;-69
2024/03/06 10:55:50;;;;;;;26.02;18.73;;;7.60;99.90;;;;;;7368008;19;20051;-67
2024/03/06 10:58:18;;;;;;;28.05;20.05;;;7.60;99.90;;;;;;7368854;19;20018;-67
2024/03/06 11:00:49;;;;;;;30.45;20.77;;;7.50;99.90;;;;;;7370962;19;20022;-67
2024/03/06 11:03:16;;;;;;;27.10;19.80;;;7.50;99.90;;;;;;7358506;19;20065;-67
2024/03/06 11:05:46;;;;;;;25.70;19.70;;;7.50;99.90;;;;;;7359250;19;20026;-67
2024/03/06 11:08:15;;;;;;;27.33;20.50;;;7.40;99.90;;;;;;7368291;19;20029;-66
2024/03/06 11:10:42;;;;;;;27.80;20.83;;;7.30;99.90;;;;;;7359085;19;20019;-66
2024/03/06 11:13:22;;;;;;;27.48;22.35;;;7.30;99.90;;;;;;7354523;19;20072;-66
2024/03/06 11:15:50;;;;;;;29.40;20.23;;;7.30;99.90;;;;;;7365101;19;20018;-66
2024/03/06 11:18:29;;;;;;;31.35;21.55;;;7.30;99.90;;;;;;7364412;19;20025;-67
2024/03/06 11:21:05;;;;;;;26.42;20.13;;;7.30;99.90;;;;;;7368621;19;20022;-65
2024/03/06 11:23:32;;;;;;;27.30;20.00;;;7.30;99.90;;;;;;7364199;19;20608;-65
2024/03/06 11:26:09;;;;;;;28.67;20.98;;;7.30;99.90;;;;;;7368207;19;20415;-65
2024/03/06 11:28:37;;;;;;;27.70;20.95;;;7.30;99.90;;;;;;7350423;19;20633;-66
2024/03/06 11:31:11;;;;;;;30.58;21.23;;;7.30;99.90;;;;;;7365165;19;20018;-68
2024/03/06 11:33:46;;;;;;;27.15;20.60;;;7.30;99.90;;;;;;7357389;19;20518;-68
2024/03/06 11:36:25;;;;;;;29.08;21.35;;;7.30;99.90;;;;;;7357656;19;20037;-68
2024/03/06 11:39:08;;;;;;;31.40;21.38;;;7.30;99.90;;;;;;7362531;19;20022;-69
2024/03/06 11:41:43;;;;;;;30.60;21.60;;;7.40;99.90;;;;;;7366103;19;20014;-68
2024/03/06 11:44:21;;;;;;;29.35;21.98;;;7.30;99.90;;;;;;7362370;19;20488;-68
2024/03/06 11:46:48;;;;;;;31.05;22.17;;;7.40;99.90;;;;;;7363950;19;20492;-68
2024/03/06 11:49:20;;;;;;;28.85;21.40;;;7.50;99.90;;;;;;7372684;19;20022;-69
2024/03/06 11:51:48;;;;;;;;;;;7.60;99.90;;;;;;7374813;19;20059;-70
2024/03/06 11:54:14;;;;;;;29.27;22.50;;;7.60;99.90;;;;;;7369745;19;21401;-70
2024/03/06 11:56:44;;;;;;;29.67;22.27;;;7.60;99.90;;;;;;7370784;19;20037;-68
2024/03/06 11:59:11;;;;;;;30.05;21.08;;;7.70;99.90;;;;;;7368211;19;20039;-69
2024/03/06 12:01:37;;;;;;;32.08;21.05;;;7.70;99.90;;;;;;7372917;19;20377;-68
2024/03/06 12:04:05;;;;;;;29.27;21.83;;;7.70;99.90;;;;;;7373952;19;20028;-68
2024/03/06 12:06:33;;;;;;;32.25;22.02;;;7.70;99.90;;;;;;7371275;19;20026;-69
2024/03/06 12:09:10;;;;;;;32.97;22.17;;;7.90;99.90;;;;;;7364048;19;20024;-69
2024/03/06 12:11:37;;;;;;;32.65;23.38;;;8.00;99.90;;;;;;7366146;19;20018;-68
2024/03/06 12:14:05;;;;;;;29.45;20.83;;;8.00;99.90;;;;;;7366867;19;20772;-68
2024/03/06 12:16:31;;;;;;;32.38;21.92;;;8.00;99.90;;;;;;7365696;19;20074;-68
2024/03/06 12:18:58;;;;;;;32.03;23.77;;;8.00;99.90;;;;;;7358390;19;20032;-68
2024/03/06 12:21:32;;;;;;;33.08;23.50;;;8.00;99.90;;;;;;7363423;19;20018;-68
2024/03/06 12:24:05;;;;;;;32.92;23.23;;;8.10;99.90;;;;;;7367416;19;20755;-68
2024/03/06 12:26:36;;;;;;;30.20;22.33;;;8.10;99.90;;;;;;7371671;19;20018;-68
2024/03/06 12:29:11;;;;;;;38.42;23.83;;;8.20;99.90;;;;;;7366816;19;20089;-68
2024/03/06 12:31:41;;;;;;;37.60;26.25;;;8.30;99.90;;;;;;7368456;19;20018;-66
2024/03/06 12:34:13;;;;;;;37.20;23.42;;;8.40;99.90;;;;;;7359221;19;20037;-67
2024/03/06 12:36:39;;;;;;;91.88;79.70;;;8.60;99.90;;;;;;7359587;19;20021;-66
2024/03/06 12:39:12;;;;;;;89.85;63.42;;;8.70;99.90;;;;;;7362169;19;20573;-71
2024/03/06 12:41:42;;;;;;;94.07;71.60;;;8.80;99.90;;;;;;7374630;19;20340;-69